Time;durP1;ratioP1;P1;durP2;ratioP2;P2;SDS_P1;SDS_P2;PMS_P1;PMS_P2;Temp;Humidity;BMP_temperature;BMP_pressure;BME280_temperature;BME280_humidity;BME280_pressure;Samples;Min_cycle;Max_cycle;Signal;HPM_P1;HPM_P2
2023/04/26 00:01:04;;;;;;;6.03;4.27;;;;;;;;;;5113796;28;20243;-78
2023/04/26 00:03:32;;;;;;;7.17;4.50;;;;;;;;;;5113885;28;20204;-80
2023/04/26 00:06:02;;;;;;;6.20;4.60;;;;;;;;;;5113215;28;20288;-79
2023/04/26 00:08:29;;;;;;;6.50;4.60;;;;;;;;;;5113825;28;20194;-79
2023/04/26 00:10:56;;;;;;;7.27;4.33;;;;;;;;;;5113541;28;20285;-79
2023/04/26 00:13:24;;;;;;;6.43;4.07;;;;;;;;;;5113418;28;20312;-80
2023/04/26 00:15:52;;;;;;;6.70;4.43;;;;;;;;;;5113473;28;20194;-80
2023/04/26 00:18:19;;;;;;;5.63;4.30;;;;;;;;;;5113400;28;20570;-80
2023/04/26 00:20:47;;;;;;;5.70;4.10;;;;;;;;;;5113224;28;20228;-79
2023/04/26 00:23:14;;;;;;;5.13;3.80;;;;;;;;;;5113620;28;20280;-79
2023/04/26 00:25:41;;;;;;;5.40;4.33;;;;;;;;;;5113759;28;20200;-79
2023/04/26 00:28:08;;;;;;;6.53;4.37;;;;;;;;;;5113311;28;20297;-80
2023/04/26 00:30:36;;;;;;;5.90;4.20;;;;;;;;;;5113486;28;20203;-79
2023/04/26 00:33:05;;;;;;;5.97;4.43;;;;;;;;;;5112999;28;20229;-79
2023/04/26 00:35:32;;;;;;;6.63;4.53;;;;;;;;;;5113025;28;20224;-79
2023/04/26 00:37:59;;;;;;;7.30;4.20;;;;;;;;;;5113040;28;20290;-79
2023/04/26 00:40:26;;;;;;;6.77;4.50;;;;;;;;;;5113394;28;20241;-79
2023/04/26 00:42:57;;;;;;;6.30;4.33;;;;;;;;;;5113078;28;20321;-78
2023/04/26 00:45:25;;;;;;;8.53;4.63;;;;;;;;;;5112955;28;20221;-79
2023/04/26 00:47:52;;;;;;;8.50;4.60;;;;;;;;;;5112820;28;20221;-80
2023/04/26 00:50:21;;;;;;;8.43;4.80;;;;;;;;;;5113126;28;20666;-80
2023/04/26 00:52:48;;;;;;;8.63;4.73;;;;;;;;;;5112964;28;20231;-79
2023/04/26 00:55:16;;;;;;;7.90;4.50;;;;;;;;;;5112871;28;20277;-79
2023/04/26 00:57:44;;;;;;;10.20;4.83;;;;;;;;;;5112684;28;20741;-79
2023/04/26 01:00:12;;;;;;;7.90;4.37;;;;;;;;;;5112599;28;20657;-77
2023/04/26 01:02:40;;;;;;;8.27;4.60;;;;;;;;;;5108748;28;20205;-77
2023/04/26 01:05:08;;;;;;;7.00;4.93;;;;;;;;;;5099135;28;20207;-79
2023/04/26 01:07:37;;;;;;;7.27;4.77;;;;;;;;;;5112719;28;20201;-79
2023/04/26 01:10:05;;;;;;;6.43;4.87;;;;;;;;;;5112662;28;20195;-77
2023/04/26 01:12:32;;;;;;;8.43;5.00;;;;;;;;;;5112305;28;20733;-79
2023/04/26 01:15:00;;;;;;;11.27;5.03;;;;;;;;;;5112489;28;20217;-80
2023/04/26 01:17:27;;;;;;;8.23;5.60;;;;;;;;;;5112245;28;20304;-80
2023/04/26 01:19:54;;;;;;;9.83;5.03;;;;;;;;;;5112320;28;20218;-79
2023/04/26 01:22:21;;;;;;;7.13;5.07;;;;;;;;;;5112401;28;20427;-79
2023/04/26 01:24:51;;;;;;;8.30;5.47;;;;;;;;;;5112294;28;20305;-80
2023/04/26 01:27:18;;;;;;;9.23;5.20;;;;;;;;;;5112447;28;20278;-80
2023/04/26 01:29:46;;;;;;;6.30;4.30;;;;;;;;;;5112769;28;20645;-79
2023/04/26 01:32:13;;;;;;;8.07;5.10;;;;;;;;;;5111810;28;20783;-79
2023/04/26 01:34:40;;;;;;;8.37;5.10;;;;;;;;;;5112169;28;20723;-79
2023/04/26 01:37:07;;;;;;;7.70;5.50;;;;;;;;;;5111979;28;20225;-79
2023/04/26 01:39:35;;;;;;;7.60;5.37;;;;;;;;;;5112337;28;20239;-80
2023/04/26 01:42:04;;;;;;;8.13;5.53;;;;;;;;;;5112127;28;20230;-79
2023/04/26 01:44:32;;;;;;;6.93;4.83;;;;;;;;;;5111872;28;20576;-79
2023/04/26 01:46:59;;;;;;;8.13;5.17;;;;;;;;;;5111805;28;20193;-79
2023/04/26 01:49:26;;;;;;;7.60;5.17;;;;;;;;;;5112092;28;20292;-79
2023/04/26 01:51:53;;;;;;;9.10;5.40;;;;;;;;;;5112339;28;20284;-79
2023/04/26 01:54:20;;;;;;;7.37;5.30;;;;;;;;;;5111946;28;20268;-80
2023/04/26 01:56:47;;;;;;;8.27;5.53;;;;;;;;;;5111978;28;20282;-80
2023/04/26 01:59:16;;;;;;;7.17;5.10;;;;;;;;;;5112008;28;20195;-79
2023/04/26 02:01:43;;;;;;;9.83;5.50;;;;;;;;;;5111149;28;20288;-79
2023/04/26 02:04:10;;;;;;;9.83;6.30;;;;;;;;;;5113678;28;20304;-79
2023/04/26 02:06:37;;;;;;;6.57;5.23;;;;;;;;;;5118885;28;20284;-80
2023/04/26 02:09:05;;;;;;;7.83;5.50;;;;;;;;;;5119048;28;20201;-79
2023/04/26 02:11:32;;;;;;;7.50;5.53;;;;;;;;;;5118854;28;20224;-79
2023/04/26 02:13:59;;;;;;;10.33;5.70;;;;;;;;;;5118348;28;20316;-78
2023/04/26 02:16:28;;;;;;;8.60;5.83;;;;;;;;;;5118436;28;20200;-79
2023/04/26 02:18:55;;;;;;;10.17;5.80;;;;;;;;;;5118685;28;20200;-79
2023/04/26 02:21:22;;;;;;;8.27;5.93;;;;;;;;;;5118531;28;20715;-79
2023/04/26 02:23:49;;;;;;;10.13;6.10;;;;;;;;;;5118529;28;20286;-79
2023/04/26 02:26:17;;;;;;;8.77;6.03;;;;;;;;;;5118320;28;20212;-80
2023/04/26 02:28:44;;;;;;;8.70;5.90;;;;;;;;;;5117750;28;20229;-80
2023/04/26 02:31:11;;;;;;;9.07;6.30;;;;;;;;;;5118548;28;20198;-80
2023/04/26 02:33:40;;;;;;;8.87;6.03;;;;;;;;;;5118691;28;20732;-79
2023/04/26 02:36:07;;;;;;;8.93;5.60;;;;;;;;;;5118601;28;20235;-80
2023/04/26 02:38:35;;;;;;;9.63;6.00;;;;;;;;;;5118529;27;20197;-80
2023/04/26 02:41:02;;;;;;;8.50;6.07;;;;;;;;;;5118319;28;20206;-79
2023/04/26 02:43:29;;;;;;;9.33;6.17;;;;;;;;;;5117574;28;20315;-79
2023/04/26 02:45:57;;;;;;;10.53;6.27;;;;;;;;;;5118340;28;20209;-78
2023/04/26 02:48:25;;;;;;;9.83;6.80;;;;;;;;;;5118548;28;20197;-79
2023/04/26 02:50:53;;;;;;;10.10;6.60;;;;;;;;;;5118086;28;20391;-79
2023/04/26 02:53:20;;;;;;;9.40;6.20;;;;;;;;;;5118207;28;20235;-79
2023/04/26 02:55:49;;;;;;;10.83;6.63;;;;;;;;;;5118628;28;20197;-79
2023/04/26 02:58:16;;;;;;;8.90;5.83;;;;;;;;;;5117673;28;20202;-79
2023/04/26 03:00:46;;;;;;;10.00;6.57;;;;;;;;;;5117837;27;20297;-79
2023/04/26 03:03:13;;;;;;;8.27;5.80;;;;;;;;;;5118432;28;20194;-79
2023/04/26 03:05:40;;;;;;;12.50;7.13;;;;;;;;;;5118211;28;20254;-79
2023/04/26 03:08:09;;;;;;;9.27;6.20;;;;;;;;;;5118385;28;20283;-79
2023/04/26 03:10:37;;;;;;;11.60;6.90;;;;;;;;;;5117963;28;20193;-80
2023/04/26 03:13:04;;;;;;;10.40;6.43;;;;;;;;;;5117605;28;20352;-79
2023/04/26 03:15:32;;;;;;;11.03;7.07;;;;;;;;;;5116223;28;20232;-79
2023/04/26 03:17:59;;;;;;;11.33;6.67;;;;;;;;;;5114494;28;20284;-79
2023/04/26 03:20:26;;;;;;;9.33;6.30;;;;;;;;;;5114852;28;20233;-78
2023/04/26 03:22:54;;;;;;;10.20;6.97;;;;;;;;;;5114816;28;20305;-79
2023/04/26 03:25:22;;;;;;;11.40;7.40;;;;;;;;;;5114909;28;20232;-79
2023/04/26 03:27:49;;;;;;;11.10;6.63;;;;;;;;;;5113686;27;20728;-79
2023/04/26 03:30:17;;;;;;;11.07;6.50;;;;;;;;;;5114469;28;20764;-79
2023/04/26 03:32:44;;;;;;;10.37;6.80;;;;;;;;;;5114653;28;20285;-79
2023/04/26 03:35:11;;;;;;;12.67;7.60;;;;;;;;;;5114465;28;20236;-79
2023/04/26 03:37:39;;;;;;;10.30;7.20;;;;;;;;;;5114131;28;20296;-79
2023/04/26 03:40:08;;;;;;;11.90;7.10;;;;;;;;;;5114350;28;20653;-79
2023/04/26 03:42:37;;;;;;;9.37;7.40;;;;;;;;;;5113705;28;20225;-79
2023/04/26 03:45:04;;;;;;;12.20;7.27;;;;;;;;;;5114477;28;20286;-80
2023/04/26 03:47:31;;;;;;;12.63;7.53;;;;;;;;;;5114472;28;20204;-79
2023/04/26 03:49:59;;;;;;;11.30;7.10;;;;;;;;;;5113799;28;20225;-79
2023/04/26 03:52:26;;;;;;;12.03;7.50;;;;;;;;;;5114189;28;20193;-79
2023/04/26 03:54:53;;;;;;;12.13;7.57;;;;;;;;;;5113934;28;20261;-79
2023/04/26 03:57:20;;;;;;;10.67;6.77;;;;;;;;;;5113615;28;20614;-80
2023/04/26 03:59:49;;;;;;;9.60;7.40;;;;;;;;;;5113945;28;20879;-79
2023/04/26 04:02:16;;;;;;;13.43;7.43;;;;;;;;;;5114441;28;20230;-79
2023/04/26 04:04:43;;;;;;;12.27;8.00;;;;;;;;;;5113924;28;20201;-79
2023/04/26 04:07:10;;;;;;;13.53;8.40;;;;;;;;;;5114051;28;20288;-80
2023/04/26 04:09:38;;;;;;;13.13;7.43;;;;;;;;;;5113726;28;20671;-79
2023/04/26 04:12:05;;;;;;;12.60;7.60;;;;;;;;;;5113773;28;20664;-79
2023/04/26 04:14:33;;;;;;;11.37;7.27;;;;;;;;;;5113598;28;20228;-79
2023/04/26 04:17:01;;;;;;;11.13;7.70;;;;;;;;;;5113837;28;20292;-79
2023/04/26 04:19:28;;;;;;;13.93;8.17;;;;;;;;;;5113449;28;20953;-80
2023/04/26 04:21:56;;;;;;;11.57;7.50;;;;;;;;;;5113431;28;20295;-79
2023/04/26 04:24:23;;;;;;;12.47;7.73;;;;;;;;;;5113470;28;20200;-79
2023/04/26 04:26:50;;;;;;;10.03;7.93;;;;;;;;;;5112885;28;20302;-80
2023/04/26 04:29:17;;;;;;;12.30;7.50;;;;;;;;;;5113807;28;20221;-79
2023/04/26 04:31:44;;;;;;;14.07;7.90;;;;;;;;;;5113796;28;20341;-79
2023/04/26 04:34:13;;;;;;;10.80;7.43;;;;;;;;;;5113080;28;20261;-78
2023/04/26 04:36:40;;;;;;;11.93;7.50;;;;;;;;;;5113433;28;20232;-77
2023/04/26 04:39:12;;;;;;;10.93;8.30;;;;;;;;;;5113375;28;20288;-80
2023/04/26 04:41:46;;;;;;;12.50;8.03;;;;;;;;;;5112624;28;20316;-78
2023/04/26 04:44:14;;;;;;;13.07;7.57;;;;;;;;;;5113529;28;20193;-78
2023/04/26 04:46:41;;;;;;;11.83;8.00;;;;;;;;;;5113104;28;20197;-77
2023/04/26 04:49:09;;;;;;;13.23;7.60;;;;;;;;;;5113229;28;20280;-80
2023/04/26 04:51:38;;;;;;;11.03;8.07;;;;;;;;;;5113222;28;20236;-79
2023/04/26 04:54:10;;;;;;;11.90;7.47;;;;;;;;;;5112159;28;20664;-79
2023/04/26 04:56:37;;;;;;;12.03;8.20;;;;;;;;;;5112925;28;20284;-80
2023/04/26 04:59:05;;;;;;;12.20;7.80;;;;;;;;;;5112737;28;20230;-80
2023/04/26 05:01:32;;;;;;;11.70;7.37;;;;;;;;;;5112855;28;20293;-79
2023/04/26 05:04:00;;;;;;;11.57;8.20;;;;;;;;;;5112832;28;20201;-79
2023/04/26 05:06:28;;;;;;;12.10;8.00;;;;;;;;;;5112928;28;20272;-79
2023/04/26 05:08:56;;;;;;;12.07;7.93;;;;;;;;;;5111971;28;20212;-79
2023/04/26 05:11:24;;;;;;;10.93;7.70;;;;;;;;;;5112944;28;20194;-79
2023/04/26 05:13:51;;;;;;;12.67;7.57;;;;;;;;;;5112324;28;20321;-80
2023/04/26 05:16:18;;;;;;;9.90;7.47;;;;;;;;;;5112366;28;20674;-80
2023/04/26 05:18:45;;;;;;;12.30;7.90;;;;;;;;;;5112195;28;20718;-79
2023/04/26 05:21:12;;;;;;;11.97;7.20;;;;;;;;;;5112209;28;20196;-79
2023/04/26 05:23:40;;;;;;;9.67;7.40;;;;;;;;;;5111798;28;20617;-79
2023/04/26 05:26:08;;;;;;;13.03;7.77;;;;;;;;;;5112724;28;20197;-80
2023/04/26 05:28:35;;;;;;;12.07;7.87;;;;;;;;;;5112437;28;20193;-80
2023/04/26 05:31:03;;;;;;;12.47;7.50;;;;;;;;;;5112264;28;20225;-79
2023/04/26 05:33:30;;;;;;;12.47;7.37;;;;;;;;;;5112450;28;20684;-80
2023/04/26 05:35:58;;;;;;;12.53;7.53;;;;;;;;;;5112074;28;20655;-79
2023/04/26 05:38:26;;;;;;;13.00;7.40;;;;;;;;;;5111193;28;20219;-80
2023/04/26 05:40:53;;;;;;;12.33;7.40;;;;;;;;;;5111846;28;20194;-79
2023/04/26 05:43:21;;;;;;;14.07;7.17;;;;;;;;;;5112252;28;20624;-79
2023/04/26 05:45:52;;;;;;;12.93;7.67;;;;;;;;;;5112004;28;20561;-79
2023/04/26 05:48:21;;;;;;;15.37;7.43;;;;;;;;;;5112337;28;20289;-79
2023/04/26 05:50:48;;;;;;;10.97;7.20;;;;;;;;;;5112103;28;20199;-79
2023/04/26 05:53:15;;;;;;;13.07;7.53;;;;;;;;;;5111831;28;20295;-79
2023/04/26 05:55:42;;;;;;;12.47;7.73;;;;;;;;;;5111936;28;20326;-79
2023/04/26 05:58:10;;;;;;;10.80;7.30;;;;;;;;;;5112070;28;20239;-79
2023/04/26 06:00:39;;;;;;;10.90;7.90;;;;;;;;;;5111479;28;20246;-78
2023/04/26 06:03:06;;;;;;;10.20;7.10;;;;;;;;;;5111906;28;20646;-80
2023/04/26 06:05:34;;;;;;;10.80;7.80;;;;;;;;;;5112147;28;20199;-80
2023/04/26 06:08:01;;;;;;;12.23;7.23;;;;;;;;;;5111478;28;20197;-79
2023/04/26 06:10:28;;;;;;;10.60;6.93;;;;;;;;;;5111832;28;20758;-80
2023/04/26 06:12:55;;;;;;;11.40;7.33;;;;;;;;;;5111920;28;20292;-80
2023/04/26 06:15:22;;;;;;;10.80;6.53;;;;;;;;;;5111511;28;20327;-79
2023/04/26 06:17:51;;;;;;;10.70;6.97;;;;;;;;;;5112033;28;20221;-79
2023/04/26 06:20:18;;;;;;;8.33;6.37;;;;;;;;;;5111808;28;20565;-79
2023/04/26 06:22:45;;;;;;;12.00;6.40;;;;;;;;;;5111322;28;20301;-80
2023/04/26 06:25:13;;;;;;;8.67;6.23;;;;;;;;;;5111373;28;20204;-80
2023/04/26 06:27:40;;;;;;;10.33;6.93;;;;;;;;;;5111717;28;20197;-81
2023/04/26 06:30:08;;;;;;;10.43;7.00;;;;;;;;;;5111782;28;20194;-79
2023/04/26 06:32:35;;;;;;;9.77;6.90;;;;;;;;;;5111433;28;20760;-79
2023/04/26 06:35:03;;;;;;;11.70;6.30;;;;;;;;;;5111564;28;20226;-79
2023/04/26 06:37:31;;;;;;;10.63;7.07;;;;;;;;;;5111259;28;20201;-79
2023/04/26 06:39:58;;;;;;;12.27;6.90;;;;;;;;;;5111200;28;20287;-80
2023/04/26 06:42:25;;;;;;;11.40;6.93;;;;;;;;;;5111461;28;20320;-80
2023/04/26 06:44:53;;;;;;;10.23;6.73;;;;;;;;;;5111524;28;20197;-80
2023/04/26 06:47:20;;;;;;;8.73;6.33;;;;;;;;;;5111984;28;20328;-80
2023/04/26 06:49:47;;;;;;;10.67;6.07;;;;;;;;;;5111152;28;20280;-79
2023/04/26 06:52:16;;;;;;;8.97;6.37;;;;;;;;;;5115316;28;20221;-80
2023/04/26 06:54:43;;;;;;;9.93;5.83;;;;;;;;;;5115356;28;20659;-79
2023/04/26 06:57:10;;;;;;;11.07;5.97;;;;;;;;;;5115533;28;20672;-79
2023/04/26 06:59:37;;;;;;;7.70;5.97;;;;;;;;;;5114958;28;20644;-77
2023/04/26 07:02:05;;;;;;;8.47;5.87;;;;;;;;;;5115158;28;20619;-78
2023/04/26 07:04:32;;;;;;;7.67;6.00;;;;;;;;;;5114852;28;20203;-79
2023/04/26 07:06:59;;;;;;;8.63;6.00;;;;;;;;;;5115587;28;20288;-79
2023/04/26 07:09:27;;;;;;;9.47;5.97;;;;;;;;;;5115058;28;20224;-79
2023/04/26 07:11:55;;;;;;;10.63;6.20;;;;;;;;;;5114955;28;20300;-79
2023/04/26 07:14:22;;;;;;;7.90;6.07;;;;;;;;;;5114959;28;20304;-79
2023/04/26 07:16:49;;;;;;;9.20;5.47;;;;;;;;;;5114832;28;20229;-79
2023/04/26 07:19:16;;;;;;;8.87;6.17;;;;;;;;;;5114359;28;20288;-79
2023/04/26 07:21:44;;;;;;;10.67;5.80;;;;;;;;;;5114952;28;20229;-79
2023/04/26 07:24:12;;;;;;;11.43;6.07;;;;;;;;;;5114732;28;20761;-79
2023/04/26 07:26:41;;;;;;;8.80;5.23;;;;;;;;;;5114570;28;20232;-79
2023/04/26 07:29:08;;;;;;;10.60;5.63;;;;;;;;;;5114598;28;20202;-80
2023/04/26 07:31:36;;;;;;;10.33;5.90;;;;;;;;;;5114709;28;20194;-78
2023/04/26 07:34:03;;;;;;;7.90;5.17;;;;;;;;;;5113821;28;20221;-79
2023/04/26 07:36:31;;;;;;;8.97;5.40;;;;;;;;;;5114262;28;20540;-79
2023/04/26 07:38:58;;;;;;;7.73;5.23;;;;;;;;;;5114564;28;20204;-80
2023/04/26 07:41:25;;;;;;;9.57;5.40;;;;;;;;;;5114509;28;20292;-79
2023/04/26 07:43:54;;;;;;;8.63;5.63;;;;;;;;;;5114550;28;20293;-79
2023/04/26 07:46:21;;;;;;;8.70;5.33;;;;;;;;;;5114297;28;20658;-79
2023/04/26 07:48:48;;;;;;;7.37;5.40;;;;;;;;;;5113634;28;20204;-80
2023/04/26 07:51:15;;;;;;;8.83;5.23;;;;;;;;;;5114195;28;20292;-79
2023/04/26 07:53:43;;;;;;;8.50;5.13;;;;;;;;;;5114160;28;20250;-78
2023/04/26 07:56:10;;;;;;;6.77;4.77;;;;;;;;;;5114434;28;20233;-77
2023/04/26 07:58:38;;;;;;;9.13;4.97;;;;;;;;;;5114157;28;20288;-79
2023/04/26 08:01:07;;;;;;;6.60;4.60;;;;;;;;;;5114224;28;20200;-79
2023/04/26 08:03:35;;;;;;;8.50;5.17;;;;;;;;;;5112895;28;20246;-79
2023/04/26 08:06:02;;;;;;;7.53;4.87;;;;;;;;;;5114035;28;20239;-79
2023/04/26 08:08:31;;;;;;;6.90;4.73;;;;;;;;;;5114110;28;20285;-77
2023/04/26 08:10:58;;;;;;;9.93;5.03;;;;;;;;;;5113749;28;20197;-79
2023/04/26 08:13:25;;;;;;;6.77;4.50;;;;;;;;;;5113484;28;20657;-78
2023/04/26 08:15:52;;;;;;;6.80;4.83;;;;;;;;;;5114149;28;20658;-79
2023/04/26 08:18:21;;;;;;;7.77;5.07;;;;;;;;;;5113339;28;20817;-79
2023/04/26 08:20:48;;;;;;;8.00;4.87;;;;;;;;;;5113755;28;20289;-79
2023/04/26 08:23:15;;;;;;;6.63;4.90;;;;;;;;;;5113719;28;20570;-78
2023/04/26 08:25:42;;;;;;;7.97;4.87;;;;;;;;;;5114091;28;20225;-79
2023/04/26 08:28:13;;;;;;;7.63;4.87;;;;;;;;;;5113598;28;20305;-79
2023/04/26 08:30:40;;;;;;;9.70;5.47;;;;;;;;;;5113338;28;20202;-79
2023/04/26 08:33:07;;;;;;;7.67;4.43;;;;;;;;;;5113560;28;20220;-79
2023/04/26 08:35:36;;;;;;;6.83;4.50;;;;;;;;;;5113474;28;20315;-79
2023/04/26 08:38:03;;;;;;;8.53;4.77;;;;;;;;;;5113482;28;20292;-79
2023/04/26 08:40:31;;;;;;;8.40;4.73;;;;;;;;;;5113369;28;20387;-79
2023/04/26 08:42:58;;;;;;;8.40;4.73;;;;;;;;;;5113233;28;20308;-79
2023/04/26 08:45:26;;;;;;;8.13;4.70;;;;;;;;;;5113253;28;20680;-79
2023/04/26 08:47:54;;;;;;;6.97;4.73;;;;;;;;;;5113223;28;20288;-79
2023/04/26 08:50:22;;;;;;;9.30;5.20;;;;;;;;;;5113065;28;20207;-79
2023/04/26 08:52:51;;;;;;;7.47;5.10;;;;;;;;;;5113214;28;20346;-79
2023/04/26 08:55:20;;;;;;;9.37;5.17;;;;;;;;;;5113042;28;20232;-79
2023/04/26 08:57:48;;;;;;;8.93;5.07;;;;;;;;;;5112888;28;20197;-78
2023/04/26 09:00:16;;;;;;;10.30;5.10;;;;;;;;;;5112749;28;20255;-79
2023/04/26 09:02:46;;;;;;;11.63;5.87;;;;;;;;;;5113034;28;20218;-78
2023/04/26 09:05:14;;;;;;;7.00;4.73;;;;;;;;;;5112415;28;20204;-79
2023/04/26 09:07:42;;;;;;;8.23;5.70;;;;;;;;;;5112934;28;20212;-80
2023/04/26 09:10:12;;;;;;;9.63;5.47;;;;;;;;;;5112715;28;20200;-80
2023/04/26 09:12:39;;;;;;;9.27;5.47;;;;;;;;;;5112766;28;20221;-79
2023/04/26 09:15:07;;;;;;;9.53;6.00;;;;;;;;;;5111279;28;20261;-79
2023/04/26 09:17:36;;;;;;;10.77;6.63;;;;;;;;;;5112722;28;20202;-79
2023/04/26 09:20:17;;;;;;;8.60;6.20;;;;;;;;;;5112384;28;20226;-79
2023/04/26 09:22:45;;;;;;;10.60;5.97;;;;;;;;;;5112219;28;20190;-79
2023/04/26 09:25:14;;;;;;;10.00;6.53;;;;;;;;;;5112426;28;20658;-79
2023/04/26 09:27:43;;;;;;;10.30;6.77;;;;;;;;;;5112458;28;20198;-79
2023/04/26 09:30:14;;;;;;;10.47;6.37;;;;;;;;;;5111968;28;20193;-79
2023/04/26 09:32:46;;;;;;;8.67;6.17;;;;;;;;;;5112198;28;20194;-80
2023/04/26 09:35:22;;;;;;;8.90;6.03;;;;;;;;;;5112236;28;20321;-78
2023/04/26 09:37:52;;;;;;;7.73;6.40;;;;;;;;;;5112513;28;20289;-80
2023/04/26 09:40:21;;;;;;;8.63;6.10;;;;;;;;;;5112236;28;20275;-79
2023/04/26 09:42:56;;;;;;;10.00;6.20;;;;;;;;;;5112012;28;20324;-79
2023/04/26 09:45:23;;;;;;;10.00;6.17;;;;;;;;;;5111852;28;20288;-79
2023/04/26 09:47:51;;;;;;;8.37;6.53;;;;;;;;;;5112080;28;20731;-79
2023/04/26 09:50:26;;;;;;;8.27;7.00;;;;;;;;;;5111950;28;20284;-80
2023/04/26 09:52:53;;;;;;;9.90;7.03;;;;;;;;;;5111885;28;20193;-79
2023/04/26 09:55:28;;;;;;;9.40;6.77;;;;;;;;;;5111866;28;20306;-80
2023/04/26 09:57:55;;;;;;;9.60;6.77;;;;;;;;;;5111743;28;20305;-79
2023/04/26 10:00:23;;;;;;;8.20;6.50;;;;;;;;;;5111639;28;20217;-79
2023/04/26 10:02:50;;;;;;;10.53;6.83;;;;;;;;;;5111626;28;20730;-80
2023/04/26 10:05:18;;;;;;;8.70;6.73;;;;;;;;;;5112141;28;20292;-79
2023/04/26 10:07:46;;;;;;;10.07;7.03;;;;;;;;;;5111806;28;20221;-80
2023/04/26 10:10:13;;;;;;;8.10;6.63;;;;;;;;;;5111757;28;20205;-79
2023/04/26 10:12:42;;;;;;;11.07;7.83;;;;;;;;;;5111284;28;20923;-79
2023/04/26 10:15:10;;;;;;;9.77;7.57;;;;;;;;;;5111643;28;20640;-79
2023/04/26 10:17:38;;;;;;;8.90;7.37;;;;;;;;;;5112055;28;20202;-80
2023/04/26 10:20:07;;;;;;;10.77;8.20;;;;;;;;;;5111528;28;20292;-79
2023/04/26 10:22:37;;;;;;;13.40;8.43;;;;;;;;;;5112003;28;20198;-79
2023/04/26 10:25:05;;;;;;;13.00;8.60;;;;;;;;;;5112516;28;20205;-80
2023/04/26 10:27:49;;;;;;;9.40;8.30;;;;;;;;;;5115516;28;20201;-79
2023/04/26 10:30:16;;;;;;;10.70;8.10;;;;;;;;;;5115786;28;20197;-79
2023/04/26 10:33:16;;;;;;;9.83;7.80;;;;;;;;;;5115737;28;20204;-79
2023/04/26 10:36:03;;;;;;;10.90;8.47;;;;;;;;;;5115738;28;20229;-78
2023/04/26 10:38:30;;;;;;;9.50;7.77;;;;;;;;;;5115633;28;20289;-80
2023/04/26 10:41:22;;;;;;;10.73;7.77;;;;;;;;;;5115777;28;20666;-80
2023/04/26 10:43:51;;;;;;;12.20;8.20;;;;;;;;;;5115163;28;20201;-79
2023/04/26 10:46:34;;;;;;;11.40;8.30;;;;;;;;;;5115448;28;20280;-79
2023/04/26 10:49:12;;;;;;;11.70;8.80;;;;;;;;;;5115738;28;20285;-80
2023/04/26 10:51:40;;;;;;;9.80;8.40;;;;;;;;;;5115413;28;20304;-80
2023/04/26 10:54:07;;;;;;;14.00;9.70;;;;;;;;;;5115649;28;20193;-80
2023/04/26 10:56:49;;;;;;;11.53;9.60;;;;;;;;;;5114819;28;20251;-80
2023/04/26 10:59:20;;;;;;;15.30;9.73;;;;;;;;;;5112424;28;20228;-80
2023/04/26 11:01:47;;;;;;;13.93;9.73;;;;;;;;;;5115500;28;20201;-79
2023/04/26 11:04:15;;;;;;;11.10;8.67;;;;;;;;;;5115081;28;20292;-79
2023/04/26 11:06:49;;;;;;;15.23;9.47;;;;;;;;;;5115183;28;20201;-79
2023/04/26 11:09:36;;;;;;;12.07;10.30;;;;;;;;;;5114917;28;20653;-79
2023/04/26 11:12:05;;;;;;;11.67;8.57;;;;;;;;;;5114645;28;20193;-80
2023/04/26 11:14:34;;;;;;;10.60;8.60;;;;;;;;;;5114872;28;20201;-79
2023/04/26 11:17:04;;;;;;;9.57;8.50;;;;;;;;;;5116619;28;20640;-78
2023/04/26 11:19:32;;;;;;;10.27;8.80;;;;;;;;;;5115254;28;20189;-79
2023/04/26 11:21:59;;;;;;;10.87;8.37;;;;;;;;;;5115014;28;20221;-79
2023/04/26 11:24:27;;;;;;;10.43;8.67;;;;;;;;;;5114772;28;20201;-79
2023/04/26 11:26:54;;;;;;;12.27;9.03;;;;;;;;;;5114480;28;20190;-79
2023/04/26 11:29:22;;;;;;;9.10;8.07;;;;;;;;;;5114725;28;20194;-80
2023/04/26 11:31:54;;;;;;;10.13;8.40;;;;;;;;;;5114737;28;20285;-79
2023/04/26 11:34:23;;;;;;;10.30;8.50;;;;;;;;;;5114720;28;20281;-79
2023/04/26 11:36:51;;;;;;;9.13;8.23;;;;;;;;;;5113844;28;20229;-80
2023/04/26 11:39:20;;;;;;;8.63;7.73;;;;;;;;;;5114733;28;20200;-80
2023/04/26 11:41:47;;;;;;;8.37;7.47;;;;;;;;;;5114269;28;20610;-79
2023/04/26 11:44:19;;;;;;;7.80;6.93;;;;;;;;;;5114488;28;20206;-80
2023/04/26 11:46:47;;;;;;;9.60;7.00;;;;;;;;;;5114431;28;20701;-79
2023/04/26 11:49:15;;;;;;;8.10;7.30;;;;;;;;;;5114734;28;20297;-79
2023/04/26 11:51:43;;;;;;;8.53;7.23;;;;;;;;;;5114355;28;20201;-79
2023/04/26 11:54:10;;;;;;;8.23;7.43;;;;;;;;;;5114026;28;20194;-81
2023/04/26 11:56:38;;;;;;;8.10;7.17;;;;;;;;;;5114147;28;20221;-79
2023/04/26 11:59:05;;;;;;;8.13;7.27;;;;;;;;;;5114654;28;20201;-79
2023/04/26 12:01:32;;;;;;;8.43;7.57;;;;;;;;;;5114124;28;20230;-80
2023/04/26 12:04:00;;;;;;;9.10;7.47;;;;;;;;;;5114091;28;20292;-79
2023/04/26 12:06:32;;;;;;;8.47;7.57;;;;;;;;;;5114294;28;20201;-79
2023/04/26 12:09:02;;;;;;;8.80;7.57;;;;;;;;;;5113886;28;20225;-80
2023/04/26 12:11:29;;;;;;;9.30;8.00;;;;;;;;;;5113764;28;20572;-80
2023/04/26 12:13:59;;;;;;;9.90;8.67;;;;;;;;;;5114004;28;20251;-80
2023/04/26 12:16:26;;;;;;;10.23;8.60;;;;;;;;;;5113529;28;20666;-80
2023/04/26 12:18:54;;;;;;;9.50;8.60;;;;;;;;;;5114072;28;20648;-79
2023/04/26 12:21:21;;;;;;;10.53;8.90;;;;;;;;;;5113837;28;20634;-80
2023/04/26 12:23:49;;;;;;;10.73;9.20;;;;;;;;;;5113379;28;20292;-80
2023/04/26 12:26:19;;;;;;;9.60;8.43;;;;;;;;;;5113794;28;20281;-79
2023/04/26 12:28:46;;;;;;;9.40;8.40;;;;;;;;;;5113465;28;20280;-79
2023/04/26 12:31:13;;;;;;;9.60;8.03;;;;;;;;;;5113524;28;20194;-79
2023/04/26 12:33:40;;;;;;;8.90;8.00;;;;;;;;;;5113662;28;20285;-80
2023/04/26 12:36:08;;;;;;;9.73;8.37;;;;;;;;;;5113374;28;20221;-79
2023/04/26 12:38:36;;;;;;;9.80;8.43;;;;;;;;;;5112909;28;20300;-79
2023/04/26 12:41:04;;;;;;;10.00;8.97;;;;;;;;;;5113684;28;20288;-80
2023/04/26 12:43:32;;;;;;;10.37;8.57;;;;;;;;;;5112974;28;20293;-78
2023/04/26 12:45:59;;;;;;;11.30;8.97;;;;;;;;;;5113032;28;20232;-80
2023/04/26 12:48:27;;;;;;;9.27;8.33;;;;;;;;;;5112887;28;20658;-80
2023/04/26 12:50:54;;;;;;;9.70;8.70;;;;;;;;;;5113508;28;20194;-80
2023/04/26 12:53:21;;;;;;;9.93;8.47;;;;;;;;;;5112359;28;20193;-79
2023/04/26 12:55:48;;;;;;;10.73;8.33;;;;;;;;;;5112837;28;20205;-78
2023/04/26 12:58:17;;;;;;;10.57;8.80;;;;;;;;;;5113315;28;20329;-78
2023/04/26 13:00:44;;;;;;;13.87;9.47;;;;;;;;;;5113157;28;20229;-79
2023/04/26 13:03:13;;;;;;;12.00;9.70;;;;;;;;;;5112685;28;20288;-79
2023/04/26 13:05:40;;;;;;;11.43;9.30;;;;;;;;;;5113115;28;20204;-79
2023/04/26 13:08:07;;;;;;;11.80;9.47;;;;;;;;;;5112265;28;20567;-79
2023/04/26 13:10:35;;;;;;;12.67;9.27;;;;;;;;;;5112661;28;20225;-79
2023/04/26 13:13:02;;;;;;;11.43;10.20;;;;;;;;;;5112604;28;20220;-79
2023/04/26 13:15:30;;;;;;;10.90;9.40;;;;;;;;;;5112636;28;20751;-78
2023/04/26 13:17:58;;;;;;;10.47;9.10;;;;;;;;;;5112616;28;20263;-78
2023/04/26 13:20:25;;;;;;;10.57;9.23;;;;;;;;;;5112817;28;20190;-79
2023/04/26 13:22:53;;;;;;;10.30;8.67;;;;;;;;;;5112170;28;20661;-78
2023/04/26 13:25:20;;;;;;;10.07;9.03;;;;;;;;;;5112583;28;20633;-78
2023/04/26 13:27:47;;;;;;;11.20;9.30;;;;;;;;;;5112575;28;20221;-79
2023/04/26 13:30:14;;;;;;;9.23;8.23;;;;;;;;;;5112904;28;20286;-78
2023/04/26 13:32:43;;;;;;;9.47;8.47;;;;;;;;;;5112183;28;20301;-79
2023/04/26 13:35:11;;;;;;;8.67;7.73;;;;;;;;;;5112600;28;20204;-79
2023/04/26 13:37:38;;;;;;;8.82;7.13;;;;;;;;;;5111998;28;20236;-79
2023/04/26 13:40:05;;;;;;;8.07;6.70;;;;;;;;;;5112180;28;20202;-79
2023/04/26 13:42:33;;;;;;;10.68;8.02;;;;;;;;;;5112397;28;20320;-79
2023/04/26 13:45:04;;;;;;;8.57;7.78;;;;;;;;;;5112269;28;20262;-79
2023/04/26 13:47:32;;;;;;;7.55;6.75;;;;;;;;;;5112163;28;20246;-79
2023/04/26 13:50:00;;;;;;;8.10;7.28;;;;;;;;;;5112133;28;20201;-79
2023/04/26 13:52:28;;;;;;;8.10;7.30;;;;;;;;;;5111780;28;20204;-79
2023/04/26 13:54:55;;;;;;;10.52;7.53;;;;;;;;;;5112566;28;20641;-79
2023/04/26 13:57:22;;;;;;;13.20;7.53;;;;;;;;;;5111653;28;20316;-79
2023/04/26 13:59:50;;;;;;;8.20;7.40;;;;;;;;;;5111286;28;20240;-78
2023/04/26 14:02:17;;;;;;;6.93;6.13;;;;;;;;;;5112024;28;20633;-79
2023/04/26 14:04:44;;;;;;;6.68;5.97;;;;;;;;;;5111857;28;20218;-79
2023/04/26 14:07:13;;;;;;;9.18;7.07;;;;;;;;;;5111856;28;20326;-79
2023/04/26 14:09:40;;;;;;;7.18;6.10;;;;;;;;;;5112088;28;20300;-78
2023/04/26 14:12:08;;;;;;;8.43;6.53;;;;;;;;;;5111965;28;20236;-79
2023/04/26 14:14:36;;;;;;;7.68;6.88;;;;;;;;;;5111447;28;20200;-78
2023/04/26 14:17:03;;;;;;;8.70;6.75;;;;;;;;;;5111747;28;20677;-79
2023/04/26 14:19:30;;;;;;;7.55;6.80;;;;;;;;;;5111535;28;20197;-79
2023/04/26 14:21:57;;;;;;;8.50;7.15;;;;;;;;;;5111928;28;20276;-79
2023/04/26 14:24:26;;;;;;;9.10;6.30;;;;;;;;;;5112133;28;20217;-79
2023/04/26 14:26:53;;;;;;;7.10;6.28;;;;;;;;;;5111717;28;20193;-79
2023/04/26 14:29:20;;;;;;;7.25;6.43;;;;;;;;;;5111540;28;20623;-79
2023/04/26 14:31:48;;;;;;;6.93;5.65;;;;;;;;;;5111968;28;20201;-79
2023/04/26 14:34:15;;;;;;;6.50;5.68;;;;;;;;;;5111889;28;20288;-79
2023/04/26 14:36:42;;;;;;;6.65;5.95;;;;;;;;;;5111561;28;20275;-80
2023/04/26 14:39:09;;;;;;;6.97;6.35;;;;;;;;;;5111596;28;20293;-78
2023/04/26 14:41:38;;;;;;;6.40;5.80;;;;;;;;;;5111414;28;20288;-79
2023/04/26 14:44:05;;;;;;;6.18;5.57;;;;;;;;;;5111947;28;20230;-78